sensor_id;sensor_type;location;lat;lon;timestamp;P1;durP1;ratioP1;P2;durP2;ratioP2
11921;SDS011;6021;51.182;3.160;2023-02-28T00:01:28;5.83;;;5.23;;
11921;SDS011;6021;51.182;3.160;2023-02-28T00:03:57;5.87;;;5.20;;
11921;SDS011;6021;51.182;3.160;2023-02-28T00:06:25;5.50;;;4.97;;
11921;SDS011;6021;51.182;3.160;2023-02-28T00:08:54;5.73;;;5.10;;
11921;SDS011;6021;51.182;3.160;2023-02-28T00:11:22;6.20;;;5.10;;
11921;SDS011;6021;51.182;3.160;2023-02-28T00:13:51;5.20;;;4.80;;
11921;SDS011;6021;51.182;3.160;2023-02-28T00:16:20;5.20;;;4.70;;
11921;SDS011;6021;51.182;3.160;2023-02-28T00:18:49;5.90;;;5.30;;
11921;SDS011;6021;51.182;3.160;2023-02-28T00:21:18;5.97;;;5.27;;
11921;SDS011;6021;51.182;3.160;2023-02-28T00:23:47;6.20;;;5.60;;
11921;SDS011;6021;51.182;3.160;2023-02-28T00:26:16;6.00;;;5.40;;
11921;SDS011;6021;51.182;3.160;2023-02-28T00:28:44;5.90;;;4.80;;
11921;SDS011;6021;51.182;3.160;2023-02-28T00:31:13;6.20;;;5.27;;
11921;SDS011;6021;51.182;3.160;2023-02-28T00:33:41;5.80;;;5.00;;
11921;SDS011;6021;51.182;3.160;2023-02-28T00:36:10;6.10;;;4.80;;
11921;SDS011;6021;51.182;3.160;2023-02-28T00:38:39;5.30;;;4.70;;
11921;SDS011;6021;51.182;3.160;2023-02-28T00:41:08;6.13;;;4.90;;
11921;SDS011;6021;51.182;3.160;2023-02-28T00:43:37;5.10;;;4.60;;
11921;SDS011;6021;51.182;3.160;2023-02-28T00:46:06;4.80;;;4.40;;
11921;SDS011;6021;51.182;3.160;2023-02-28T00:48:35;4.83;;;4.43;;
11921;SDS011;6021;51.182;3.160;2023-02-28T00:51:03;5.70;;;5.20;;
11921;SDS011;6021;51.182;3.160;2023-02-28T00:53:32;5.50;;;5.00;;
11921;SDS011;6021;51.182;3.160;2023-02-28T00:56:01;5.40;;;4.90;;
11921;SDS011;6021;51.182;3.160;2023-02-28T00:58:30;5.20;;;4.77;;
11921;SDS011;6021;51.182;3.160;2023-02-28T01:00:58;5.27;;;4.87;;
11921;SDS011;6021;51.182;3.160;2023-02-28T01:03:27;5.03;;;4.63;;
11921;SDS011;6021;51.182;3.160;2023-02-28T01:05:55;4.93;;;4.53;;
11921;SDS011;6021;51.182;3.160;2023-02-28T01:08:24;5.57;;;5.00;;
11921;SDS011;6021;51.182;3.160;2023-02-28T01:10:53;5.37;;;4.87;;
11921;SDS011;6021;51.182;3.160;2023-02-28T01:13:21;5.20;;;4.73;;
11921;SDS011;6021;51.182;3.160;2023-02-28T01:15:53;5.57;;;5.07;;
11921;SDS011;6021;51.182;3.160;2023-02-28T01:18:23;5.27;;;4.80;;
11921;SDS011;6021;51.182;3.160;2023-02-28T01:20:51;4.97;;;4.50;;
11921;SDS011;6021;51.182;3.160;2023-02-28T01:23:20;5.43;;;4.93;;
11921;SDS011;6021;51.182;3.160;2023-02-28T01:25:50;5.93;;;5.37;;
11921;SDS011;6021;51.182;3.160;2023-02-28T01:28:19;5.80;;;5.20;;
11921;SDS011;6021;51.182;3.160;2023-02-28T01:30:49;5.77;;;5.20;;
11921;SDS011;6021;51.182;3.160;2023-02-28T01:33:17;5.30;;;4.90;;
11921;SDS011;6021;51.182;3.160;2023-02-28T01:35:46;4.77;;;4.37;;
11921;SDS011;6021;51.182;3.160;2023-02-28T01:38:14;5.73;;;5.23;;
11921;SDS011;6021;51.182;3.160;2023-02-28T01:40:43;5.27;;;4.87;;
11921;SDS011;6021;51.182;3.160;2023-02-28T01:44:00;5.60;;;4.63;;
11921;SDS011;6021;51.182;3.160;2023-02-28T01:45:52;5.00;;;4.60;;
11921;SDS011;6021;51.182;3.160;2023-02-28T01:48:25;5.00;;;4.50;;
11921;SDS011;6021;51.182;3.160;2023-02-28T01:50:53;5.27;;;4.77;;
11921;SDS011;6021;51.182;3.160;2023-02-28T01:53:28;5.50;;;5.00;;
11921;SDS011;6021;51.182;3.160;2023-02-28T01:55:57;5.43;;;5.03;;
11921;SDS011;6021;51.182;3.160;2023-02-28T01:58:26;5.60;;;5.10;;
11921;SDS011;6021;51.182;3.160;2023-02-28T02:00:54;6.20;;;5.53;;
11921;SDS011;6021;51.182;3.160;2023-02-28T02:03:23;5.73;;;5.23;;
11921;SDS011;6021;51.182;3.160;2023-02-28T02:05:53;5.90;;;5.40;;
11921;SDS011;6021;51.182;3.160;2023-02-28T02:08:25;5.87;;;5.43;;
11921;SDS011;6021;51.182;3.160;2023-02-28T02:10:56;5.40;;;5.00;;
11921;SDS011;6021;51.182;3.160;2023-02-28T02:13:29;5.37;;;4.97;;
11921;SDS011;6021;51.182;3.160;2023-02-28T02:18:57;6.30;;;5.80;;
11921;SDS011;6021;51.182;3.160;2023-02-28T02:21:40;6.60;;;6.03;;
11921;SDS011;6021;51.182;3.160;2023-02-28T02:32:36;6.10;;;5.60;;
11921;SDS011;6021;51.182;3.160;2023-02-28T02:35:10;6.53;;;5.90;;
11921;SDS011;6021;51.182;3.160;2023-02-28T02:37:48;6.20;;;5.70;;
11921;SDS011;6021;51.182;3.160;2023-02-28T02:40:50;6.10;;;5.60;;
11921;SDS011;6021;51.182;3.160;2023-02-28T02:43:25;6.10;;;5.60;;
11921;SDS011;6021;51.182;3.160;2023-02-28T02:45:59;6.43;;;5.93;;
11921;SDS011;6021;51.182;3.160;2023-02-28T02:48:26;6.50;;;5.90;;
11921;SDS011;6021;51.182;3.160;2023-02-28T02:51:03;6.70;;;6.10;;
11921;SDS011;6021;51.182;3.160;2023-02-28T02:53:32;6.20;;;5.70;;
11921;SDS011;6021;51.182;3.160;2023-02-28T02:56:03;6.13;;;5.63;;
11921;SDS011;6021;51.182;3.160;2023-02-28T02:58:33;6.83;;;6.23;;
11921;SDS011;6021;51.182;3.160;2023-02-28T03:01:06;6.50;;;5.90;;
11921;SDS011;6021;51.182;3.160;2023-02-28T03:03:36;6.57;;;5.97;;
11921;SDS011;6021;51.182;3.160;2023-02-28T03:06:05;5.97;;;5.47;;
11921;SDS011;6021;51.182;3.160;2023-02-28T03:08:34;5.90;;;5.40;;
11921;SDS011;6021;51.182;3.160;2023-02-28T03:11:05;6.40;;;5.90;;
11921;SDS011;6021;51.182;3.160;2023-02-28T03:16:33;6.70;;;6.10;;
11921;SDS011;6021;51.182;3.160;2023-02-28T03:19:12;7.07;;;6.20;;
11921;SDS011;6021;51.182;3.160;2023-02-28T03:21:57;5.70;;;5.20;;
11921;SDS011;6021;51.182;3.160;2023-02-28T03:24:43;7.43;;;6.73;;
11921;SDS011;6021;51.182;3.160;2023-02-28T03:27:17;6.50;;;6.00;;
11921;SDS011;6021;51.182;3.160;2023-02-28T03:29:47;6.20;;;5.70;;
11921;SDS011;6021;51.182;3.160;2023-02-28T03:32:24;6.10;;;5.70;;
11921;SDS011;6021;51.182;3.160;2023-02-28T03:35:01;8.20;;;7.40;;
11921;SDS011;6021;51.182;3.160;2023-02-28T03:37:45;7.87;;;7.07;;
11921;SDS011;6021;51.182;3.160;2023-02-28T03:40:16;7.93;;;7.13;;
11921;SDS011;6021;51.182;3.160;2023-02-28T03:42:47;7.37;;;6.73;;
11921;SDS011;6021;51.182;3.160;2023-02-28T03:45:19;8.10;;;7.40;;
11921;SDS011;6021;51.182;3.160;2023-02-28T03:47:53;8.20;;;7.50;;
11921;SDS011;6021;51.182;3.160;2023-02-28T03:50:35;7.77;;;7.17;;
11921;SDS011;6021;51.182;3.160;2023-02-28T03:53:10;7.47;;;6.80;;
11921;SDS011;6021;51.182;3.160;2023-02-28T03:55:48;7.63;;;6.93;;
11921;SDS011;6021;51.182;3.160;2023-02-28T03:58:22;8.10;;;7.40;;
11921;SDS011;6021;51.182;3.160;2023-02-28T04:01:02;7.80;;;7.10;;
11921;SDS011;6021;51.182;3.160;2023-02-28T04:03:30;9.10;;;7.80;;
11921;SDS011;6021;51.182;3.160;2023-02-28T04:05:59;7.93;;;7.17;;
11921;SDS011;6021;51.182;3.160;2023-02-28T04:08:27;8.40;;;7.70;;
11921;SDS011;6021;51.182;3.160;2023-02-28T04:10:57;8.07;;;7.30;;
11921;SDS011;6021;51.182;3.160;2023-02-28T04:13:29;8.43;;;7.63;;
11921;SDS011;6021;51.182;3.160;2023-02-28T04:15:58;8.40;;;7.60;;
11921;SDS011;6021;51.182;3.160;2023-02-28T04:18:26;10.87;;;7.93;;
11921;SDS011;6021;51.182;3.160;2023-02-28T04:20:54;7.73;;;6.93;;
11921;SDS011;6021;51.182;3.160;2023-02-28T04:23:24;8.10;;;7.40;;
11921;SDS011;6021;51.182;3.160;2023-02-28T04:25:54;7.53;;;6.83;;
11921;SDS011;6021;51.182;3.160;2023-02-28T04:28:23;9.63;;;7.77;;
11921;SDS011;6021;51.182;3.160;2023-02-28T04:31:01;7.83;;;7.07;;
11921;SDS011;6021;51.182;3.160;2023-02-28T04:33:25;8.40;;;7.60;;
11921;SDS011;6021;51.182;3.160;2023-02-28T04:36:00;7.70;;;7.00;;
11921;SDS011;6021;51.182;3.160;2023-02-28T04:38:34;8.40;;;7.57;;
11921;SDS011;6021;51.182;3.160;2023-02-28T04:41:03;7.67;;;7.03;;
11921;SDS011;6021;51.182;3.160;2023-02-28T04:43:32;7.30;;;6.70;;
11921;SDS011;6021;51.182;3.160;2023-02-28T04:46:01;8.20;;;7.23;;
11921;SDS011;6021;51.182;3.160;2023-02-28T04:48:32;8.63;;;7.10;;
11921;SDS011;6021;51.182;3.160;2023-02-28T04:51:03;8.00;;;6.83;;
11921;SDS011;6021;51.182;3.160;2023-02-28T04:53:34;7.80;;;7.10;;
11921;SDS011;6021;51.182;3.160;2023-02-28T04:56:03;7.27;;;6.60;;
11921;SDS011;6021;51.182;3.160;2023-02-28T04:58:32;8.17;;;6.53;;
11921;SDS011;6021;51.182;3.160;2023-02-28T05:01:02;7.73;;;7.03;;
11921;SDS011;6021;51.182;3.160;2023-02-28T05:03:34;7.27;;;6.53;;
11921;SDS011;6021;51.182;3.160;2023-02-28T05:06:02;6.70;;;6.20;;
11921;SDS011;6021;51.182;3.160;2023-02-28T05:08:31;7.03;;;6.37;;
11921;SDS011;6021;51.182;3.160;2023-02-28T05:10:59;7.30;;;6.60;;
11921;SDS011;6021;51.182;3.160;2023-02-28T05:13:28;7.03;;;6.43;;
11921;SDS011;6021;51.182;3.160;2023-02-28T05:15:57;7.43;;;6.73;;
11921;SDS011;6021;51.182;3.160;2023-02-28T05:18:25;8.20;;;7.07;;
11921;SDS011;6021;51.182;3.160;2023-02-28T05:20:53;7.73;;;6.37;;
11921;SDS011;6021;51.182;3.160;2023-02-28T05:23:22;7.00;;;6.40;;
11921;SDS011;6021;51.182;3.160;2023-02-28T05:25:50;6.57;;;5.97;;
11921;SDS011;6021;51.182;3.160;2023-02-28T05:28:19;6.67;;;6.07;;
11921;SDS011;6021;51.182;3.160;2023-02-28T05:30:48;6.83;;;6.23;;
11921;SDS011;6021;51.182;3.160;2023-02-28T05:33:16;6.70;;;6.10;;
11921;SDS011;6021;51.182;3.160;2023-02-28T05:35:44;6.60;;;6.00;;
11921;SDS011;6021;51.182;3.160;2023-02-28T05:38:13;7.40;;;6.63;;
11921;SDS011;6021;51.182;3.160;2023-02-28T05:40:41;6.20;;;5.70;;
11921;SDS011;6021;51.182;3.160;2023-02-28T05:43:10;6.93;;;6.23;;
11921;SDS011;6021;51.182;3.160;2023-02-28T05:45:38;7.53;;;6.53;;
11921;SDS011;6021;51.182;3.160;2023-02-28T05:48:07;6.57;;;5.97;;
11921;SDS011;6021;51.182;3.160;2023-02-28T05:50:35;6.87;;;6.27;;
11921;SDS011;6021;51.182;3.160;2023-02-28T05:53:04;6.43;;;5.93;;
11921;SDS011;6021;51.182;3.160;2023-02-28T05:55:32;7.03;;;6.43;;
11921;SDS011;6021;51.182;3.160;2023-02-28T05:58:02;7.60;;;6.90;;
11921;SDS011;6021;51.182;3.160;2023-02-28T06:00:30;7.63;;;6.90;;
11921;SDS011;6021;51.182;3.160;2023-02-28T06:02:59;6.80;;;6.20;;
11921;SDS011;6021;51.182;3.160;2023-02-28T06:05:28;7.27;;;6.57;;
11921;SDS011;6021;51.182;3.160;2023-02-28T06:07:56;8.33;;;7.00;;
11921;SDS011;6021;51.182;3.160;2023-02-28T06:10:25;6.67;;;6.07;;
11921;SDS011;6021;51.182;3.160;2023-02-28T06:12:53;6.87;;;6.27;;
11921;SDS011;6021;51.182;3.160;2023-02-28T06:15:22;7.00;;;6.40;;
11921;SDS011;6021;51.182;3.160;2023-02-28T06:17:50;7.33;;;6.63;;
11921;SDS011;6021;51.182;3.160;2023-02-28T06:20:18;7.43;;;6.73;;
11921;SDS011;6021;51.182;3.160;2023-02-28T06:22:47;7.50;;;6.80;;
11921;SDS011;6021;51.182;3.160;2023-02-28T06:25:16;7.80;;;7.00;;
11921;SDS011;6021;51.182;3.160;2023-02-28T06:27:45;8.33;;;7.47;;
11921;SDS011;6021;51.182;3.160;2023-02-28T06:30:14;9.00;;;7.67;;
11921;SDS011;6021;51.182;3.160;2023-02-28T06:32:43;7.80;;;7.10;;
11921;SDS011;6021;51.182;3.160;2023-02-28T06:35:11;7.23;;;6.57;;
11921;SDS011;6021;51.182;3.160;2023-02-28T06:37:40;7.23;;;6.53;;
11921;SDS011;6021;51.182;3.160;2023-02-28T06:40:10;8.40;;;7.50;;
11921;SDS011;6021;51.182;3.160;2023-02-28T06:42:39;7.83;;;7.13;;
11921;SDS011;6021;51.182;3.160;2023-02-28T06:45:08;7.40;;;6.80;;
11921;SDS011;6021;51.182;3.160;2023-02-28T06:47:39;7.60;;;6.90;;
11921;SDS011;6021;51.182;3.160;2023-02-28T06:50:13;7.73;;;6.63;;
11921;SDS011;6021;51.182;3.160;2023-02-28T06:52:39;6.97;;;5.97;;
11921;SDS011;6021;51.182;3.160;2023-02-28T06:55:08;7.70;;;6.60;;
11921;SDS011;6021;51.182;3.160;2023-02-28T06:57:36;7.40;;;6.63;;
11921;SDS011;6021;51.182;3.160;2023-02-28T07:00:07;7.17;;;6.57;;
11921;SDS011;6021;51.182;3.160;2023-02-28T07:02:36;7.30;;;6.60;;
11921;SDS011;6021;51.182;3.160;2023-02-28T07:05:05;8.70;;;6.30;;
11921;SDS011;6021;51.182;3.160;2023-02-28T07:07:34;6.90;;;6.30;;
11921;SDS011;6021;51.182;3.160;2023-02-28T07:10:04;7.50;;;6.80;;
11921;SDS011;6021;51.182;3.160;2023-02-28T07:12:33;7.13;;;6.50;;
11921;SDS011;6021;51.182;3.160;2023-02-28T07:15:01;8.80;;;6.67;;
11921;SDS011;6021;51.182;3.160;2023-02-28T07:17:30;7.90;;;7.07;;
11921;SDS011;6021;51.182;3.160;2023-02-28T07:19:58;6.97;;;6.27;;
11921;SDS011;6021;51.182;3.160;2023-02-28T07:22:27;8.07;;;6.10;;
11921;SDS011;6021;51.182;3.160;2023-02-28T07:24:55;6.53;;;5.93;;
11921;SDS011;6021;51.182;3.160;2023-02-28T07:27:24;6.67;;;5.97;;
11921;SDS011;6021;51.182;3.160;2023-02-28T07:29:54;7.37;;;6.67;;
11921;SDS011;6021;51.182;3.160;2023-02-28T07:32:22;7.67;;;6.87;;
11921;SDS011;6021;51.182;3.160;2023-02-28T07:34:51;7.27;;;6.57;;
11921;SDS011;6021;51.182;3.160;2023-02-28T07:37:19;7.97;;;6.67;;
11921;SDS011;6021;51.182;3.160;2023-02-28T07:39:48;7.13;;;6.40;;
11921;SDS011;6021;51.182;3.160;2023-02-28T07:42:17;9.30;;;7.40;;
11921;SDS011;6021;51.182;3.160;2023-02-28T07:44:46;7.87;;;7.07;;
11921;SDS011;6021;51.182;3.160;2023-02-28T07:47:14;9.07;;;7.40;;
11921;SDS011;6021;51.182;3.160;2023-02-28T07:49:43;9.90;;;7.53;;
11921;SDS011;6021;51.182;3.160;2023-02-28T07:52:12;8.10;;;7.30;;
11921;SDS011;6021;51.182;3.160;2023-02-28T07:54:40;9.80;;;7.47;;
11921;SDS011;6021;51.182;3.160;2023-02-28T07:57:08;8.80;;;7.77;;
11921;SDS011;6021;51.182;3.160;2023-02-28T07:59:37;9.90;;;7.97;;
11921;SDS011;6021;51.182;3.160;2023-02-28T08:02:06;10.10;;;9.10;;
11921;SDS011;6021;51.182;3.160;2023-02-28T08:04:36;9.07;;;8.17;;
11921;SDS011;6021;51.182;3.160;2023-02-28T08:07:04;9.97;;;8.97;;
11921;SDS011;6021;51.182;3.160;2023-02-28T08:09:33;10.43;;;9.37;;
11921;SDS011;6021;51.182;3.160;2023-02-28T08:12:01;9.13;;;8.23;;
11921;SDS011;6021;51.182;3.160;2023-02-28T08:14:30;8.90;;;8.00;;
11921;SDS011;6021;51.182;3.160;2023-02-28T08:16:58;9.27;;;8.33;;
11921;SDS011;6021;51.182;3.160;2023-02-28T08:19:27;9.53;;;8.63;;
11921;SDS011;6021;51.182;3.160;2023-02-28T08:21:56;9.77;;;8.87;;
11921;SDS011;6021;51.182;3.160;2023-02-28T08:24:24;10.20;;;9.07;;
11921;SDS011;6021;51.182;3.160;2023-02-28T08:26:53;9.60;;;8.70;;
11921;SDS011;6021;51.182;3.160;2023-02-28T08:29:21;8.87;;;8.00;;
11921;SDS011;6021;51.182;3.160;2023-02-28T08:31:50;9.23;;;7.70;;
11921;SDS011;6021;51.182;3.160;2023-02-28T08:34:18;8.50;;;7.70;;
11921;SDS011;6021;51.182;3.160;2023-02-28T08:36:47;7.43;;;6.60;;
11921;SDS011;6021;51.182;3.160;2023-02-28T08:39:16;6.90;;;6.17;;
11921;SDS011;6021;51.182;3.160;2023-02-28T08:41:46;6.70;;;6.10;;
11921;SDS011;6021;51.182;3.160;2023-02-28T08:44:14;6.77;;;6.07;;
11921;SDS011;6021;51.182;3.160;2023-02-28T08:46:43;7.03;;;6.33;;
11921;SDS011;6021;51.182;3.160;2023-02-28T08:49:11;7.93;;;7.17;;
11921;SDS011;6021;51.182;3.160;2023-02-28T08:51:39;8.83;;;8.00;;
11921;SDS011;6021;51.182;3.160;2023-02-28T08:54:08;9.73;;;8.30;;
11921;SDS011;6021;51.182;3.160;2023-02-28T08:56:38;10.20;;;8.97;;
11921;SDS011;6021;51.182;3.160;2023-02-28T08:59:08;9.03;;;8.13;;
11921;SDS011;6021;51.182;3.160;2023-02-28T09:01:40;9.30;;;8.40;;
11921;SDS011;6021;51.182;3.160;2023-02-28T09:04:10;9.70;;;8.63;;
11921;SDS011;6021;51.182;3.160;2023-02-28T09:06:38;10.23;;;9.23;;
11921;SDS011;6021;51.182;3.160;2023-02-28T09:09:06;10.57;;;8.90;;
11921;SDS011;6021;51.182;3.160;2023-02-28T09:11:36;9.20;;;8.40;;
11921;SDS011;6021;51.182;3.160;2023-02-28T09:14:04;8.63;;;7.70;;
11921;SDS011;6021;51.182;3.160;2023-02-28T09:16:33;9.60;;;8.53;;
11921;SDS011;6021;51.182;3.160;2023-02-28T09:19:02;9.33;;;7.90;;
11921;SDS011;6021;51.182;3.160;2023-02-28T09:21:30;9.23;;;8.33;;
11921;SDS011;6021;51.182;3.160;2023-02-28T09:23:58;8.43;;;7.53;;
11921;SDS011;6021;51.182;3.160;2023-02-28T09:26:27;7.87;;;7.07;;
11921;SDS011;6021;51.182;3.160;2023-02-28T09:28:56;7.20;;;6.50;;
11921;SDS011;6021;51.182;3.160;2023-02-28T09:31:26;8.37;;;6.30;;
11921;SDS011;6021;51.182;3.160;2023-02-28T09:33:56;7.50;;;6.40;;
11921;SDS011;6021;51.182;3.160;2023-02-28T09:36:27;5.50;;;4.97;;
11921;SDS011;6021;51.182;3.160;2023-02-28T09:38:56;6.07;;;5.40;;
11921;SDS011;6021;51.182;3.160;2023-02-28T09:41:25;7.17;;;4.70;;
11921;SDS011;6021;51.182;3.160;2023-02-28T09:43:59;5.53;;;4.70;;
11921;SDS011;6021;51.182;3.160;2023-02-28T09:46:41;5.00;;;4.60;;
11921;SDS011;6021;51.182;3.160;2023-02-28T09:49:11;6.30;;;4.87;;
11921;SDS011;6021;51.182;3.160;2023-02-28T09:54:20;4.30;;;3.90;;
11921;SDS011;6021;51.182;3.160;2023-02-28T09:57:01;5.43;;;3.97;;
11921;SDS011;6021;51.182;3.160;2023-02-28T10:02:30;4.57;;;3.70;;
11921;SDS011;6021;51.182;3.160;2023-02-28T10:05:19;4.20;;;3.53;;
11921;SDS011;6021;51.182;3.160;2023-02-28T10:10:32;4.47;;;4.07;;
11921;SDS011;6021;51.182;3.160;2023-02-28T10:13:11;5.37;;;4.87;;
11921;SDS011;6021;51.182;3.160;2023-02-28T10:16:00;5.17;;;4.60;;
11921;SDS011;6021;51.182;3.160;2023-02-28T10:18:27;5.10;;;4.10;;
11921;SDS011;6021;51.182;3.160;2023-02-28T10:20:57;5.23;;;4.73;;
11921;SDS011;6021;51.182;3.160;2023-02-28T10:23:28;6.03;;;5.17;;
11921;SDS011;6021;51.182;3.160;2023-02-28T10:26:12;6.10;;;5.03;;
11921;SDS011;6021;51.182;3.160;2023-02-28T10:28:42;5.40;;;4.53;;
11921;SDS011;6021;51.182;3.160;2023-02-28T10:31:11;6.17;;;4.93;;
11921;SDS011;6021;51.182;3.160;2023-02-28T10:33:45;5.00;;;4.37;;
11921;SDS011;6021;51.182;3.160;2023-02-28T10:36:15;4.97;;;4.50;;
11921;SDS011;6021;51.182;3.160;2023-02-28T10:38:48;4.97;;;4.23;;
11921;SDS011;6021;51.182;3.160;2023-02-28T10:41:26;4.63;;;4.10;;
11921;SDS011;6021;51.182;3.160;2023-02-28T10:44:17;4.93;;;4.43;;
11921;SDS011;6021;51.182;3.160;2023-02-28T10:46:50;4.87;;;4.10;;
11921;SDS011;6021;51.182;3.160;2023-02-28T10:49:28;4.67;;;4.27;;
11921;SDS011;6021;51.182;3.160;2023-02-28T10:52:12;5.43;;;4.47;;
11921;SDS011;6021;51.182;3.160;2023-02-28T10:54:41;4.80;;;4.30;;
11921;SDS011;6021;51.182;3.160;2023-02-28T10:57:19;4.63;;;4.10;;
11921;SDS011;6021;51.182;3.160;2023-02-28T11:00:07;4.17;;;3.87;;
11921;SDS011;6021;51.182;3.160;2023-02-28T11:05:01;4.57;;;4.03;;
11921;SDS011;6021;51.182;3.160;2023-02-28T11:07:29;6.87;;;4.63;;
11921;SDS011;6021;51.182;3.160;2023-02-28T11:09:58;6.67;;;4.70;;
11921;SDS011;6021;51.182;3.160;2023-02-28T11:12:28;4.50;;;4.10;;
11921;SDS011;6021;51.182;3.160;2023-02-28T11:15:00;4.97;;;4.40;;
11921;SDS011;6021;51.182;3.160;2023-02-28T11:17:32;4.97;;;4.00;;
11921;SDS011;6021;51.182;3.160;2023-02-28T11:20:04;4.03;;;3.73;;
11921;SDS011;6021;51.182;3.160;2023-02-28T11:22:37;4.33;;;3.90;;
11921;SDS011;6021;51.182;3.160;2023-02-28T11:25:09;5.30;;;4.80;;
11921;SDS011;6021;51.182;3.160;2023-02-28T11:27:44;4.30;;;4.00;;
11921;SDS011;6021;51.182;3.160;2023-02-28T11:30:23;5.90;;;4.57;;
11921;SDS011;6021;51.182;3.160;2023-02-28T11:32:54;5.00;;;4.50;;
11921;SDS011;6021;51.182;3.160;2023-02-28T11:35:30;5.23;;;4.73;;
11921;SDS011;6021;51.182;3.160;2023-02-28T11:38:01;5.10;;;4.10;;
11921;SDS011;6021;51.182;3.160;2023-02-28T11:48:55;4.67;;;3.50;;
11921;SDS011;6021;51.182;3.160;2023-02-28T11:51:32;4.00;;;3.60;;
11921;SDS011;6021;51.182;3.160;2023-02-28T11:54:04;3.93;;;3.40;;
11921;SDS011;6021;51.182;3.160;2023-02-28T11:56:44;4.40;;;3.73;;
11921;SDS011;6021;51.182;3.160;2023-02-28T12:04:56;4.07;;;3.67;;
11921;SDS011;6021;51.182;3.160;2023-02-28T12:10:20;3.47;;;3.10;;
11921;SDS011;6021;51.182;3.160;2023-02-28T12:15:56;4.43;;;3.93;;
11921;SDS011;6021;51.182;3.160;2023-02-28T12:21:38;3.40;;;3.10;;
11921;SDS011;6021;51.182;3.160;2023-02-28T12:27:03;4.07;;;3.10;;
11921;SDS011;6021;51.182;3.160;2023-02-28T12:29:37;4.37;;;3.20;;
11921;SDS011;6021;51.182;3.160;2023-02-28T12:32:13;3.50;;;3.20;;
11921;SDS011;6021;51.182;3.160;2023-02-28T12:40:25;3.13;;;2.90;;
11921;SDS011;6021;51.182;3.160;2023-02-28T12:42:56;3.33;;;3.03;;
11921;SDS011;6021;51.182;3.160;2023-02-28T12:48:01;3.03;;;2.60;;
11921;SDS011;6021;51.182;3.160;2023-02-28T12:50:32;3.20;;;2.90;;
11921;SDS011;6021;51.182;3.160;2023-02-28T12:53:15;4.00;;;3.20;;
11921;SDS011;6021;51.182;3.160;2023-02-28T12:56:04;3.63;;;3.10;;
11921;SDS011;6021;51.182;3.160;2023-02-28T12:58:50;3.97;;;2.80;;
11921;SDS011;6021;51.182;3.160;2023-02-28T13:09:57;4.10;;;3.70;;
11921;SDS011;6021;51.182;3.160;2023-02-28T13:12:23;3.90;;;3.60;;
11921;SDS011;6021;51.182;3.160;2023-02-28T13:17:49;4.37;;;3.20;;
11921;SDS011;6021;51.182;3.160;2023-02-28T13:20:21;3.43;;;3.00;;
11921;SDS011;6021;51.182;3.160;2023-02-28T13:23:00;3.57;;;3.27;;
11921;SDS011;6021;51.182;3.160;2023-02-28T13:28:09;3.77;;;2.80;;
11921;SDS011;6021;51.182;3.160;2023-02-28T13:33:35;3.00;;;2.80;;
11921;SDS011;6021;51.182;3.160;2023-02-28T13:38:49;3.10;;;2.90;;
11921;SDS011;6021;51.182;3.160;2023-02-28T13:44:31;2.90;;;2.70;;
11921;SDS011;6021;51.182;3.160;2023-02-28T13:57:34;3.23;;;2.93;;
11921;SDS011;6021;51.182;3.160;2023-02-28T14:03:07;3.37;;;2.80;;
11921;SDS011;6021;51.182;3.160;2023-02-28T14:05:39;3.10;;;2.90;;
11921;SDS011;6021;51.182;3.160;2023-02-28T14:08:21;3.23;;;2.93;;
11921;SDS011;6021;51.182;3.160;2023-02-28T14:11:02;3.00;;;2.80;;
11921;SDS011;6021;51.182;3.160;2023-02-28T14:16:26;2.73;;;2.53;;
11921;SDS011;6021;51.182;3.160;2023-02-28T14:19:02;3.07;;;2.70;;
11921;SDS011;6021;51.182;3.160;2023-02-28T14:32:51;3.20;;;2.80;;
11921;SDS011;6021;51.182;3.160;2023-02-28T14:37:55;3.77;;;2.37;;
11921;SDS011;6021;51.182;3.160;2023-02-28T14:43:24;2.77;;;2.57;;
11921;SDS011;6021;51.182;3.160;2023-02-28T14:45:55;2.83;;;2.47;;
11921;SDS011;6021;51.182;3.160;2023-02-28T14:48:21;2.67;;;2.47;;
11921;SDS011;6021;51.182;3.160;2023-02-28T14:50:59;2.67;;;2.47;;
11921;SDS011;6021;51.182;3.160;2023-02-28T14:53:29;3.60;;;2.53;;
11921;SDS011;6021;51.182;3.160;2023-02-28T14:55:58;2.97;;;2.50;;
11921;SDS011;6021;51.182;3.160;2023-02-28T14:58:29;3.83;;;2.77;;
11921;SDS011;6021;51.182;3.160;2023-02-28T15:01:02;2.70;;;2.50;;
11921;SDS011;6021;51.182;3.160;2023-02-28T15:03:35;3.87;;;3.50;;
11921;SDS011;6021;51.182;3.160;2023-02-28T15:06:14;3.47;;;3.10;;
11921;SDS011;6021;51.182;3.160;2023-02-28T15:08:45;3.90;;;3.57;;
11921;SDS011;6021;51.182;3.160;2023-02-28T15:11:15;3.93;;;3.40;;
11921;SDS011;6021;51.182;3.160;2023-02-28T15:13:54;3.00;;;2.80;;
11921;SDS011;6021;51.182;3.160;2023-02-28T15:16:28;3.23;;;2.77;;
11921;SDS011;6021;51.182;3.160;2023-02-28T15:19:07;3.33;;;2.70;;
11921;SDS011;6021;51.182;3.160;2023-02-28T15:21:44;2.60;;;2.40;;
11921;SDS011;6021;51.182;3.160;2023-02-28T15:24:19;2.47;;;2.30;;
11921;SDS011;6021;51.182;3.160;2023-02-28T15:26:53;2.63;;;2.43;;
11921;SDS011;6021;51.182;3.160;2023-02-28T15:29:23;2.50;;;2.30;;
11921;SDS011;6021;51.182;3.160;2023-02-28T15:32:00;2.60;;;2.40;;
11921;SDS011;6021;51.182;3.160;2023-02-28T15:39:56;2.50;;;2.30;;
11921;SDS011;6021;51.182;3.160;2023-02-28T15:42:29;2.70;;;2.50;;
11921;SDS011;6021;51.182;3.160;2023-02-28T15:44:58;2.60;;;2.40;;
11921;SDS011;6021;51.182;3.160;2023-02-28T15:47:27;2.20;;;2.10;;
11921;SDS011;6021;51.182;3.160;2023-02-28T15:49:59;2.50;;;2.30;;
11921;SDS011;6021;51.182;3.160;2023-02-28T15:52:48;2.50;;;2.30;;
11921;SDS011;6021;51.182;3.160;2023-02-28T15:55:18;2.50;;;2.30;;
11921;SDS011;6021;51.182;3.160;2023-02-28T15:57:45;2.33;;;2.13;;
11921;SDS011;6021;51.182;3.160;2023-02-28T16:00:21;2.83;;;2.50;;
11921;SDS011;6021;51.182;3.160;2023-02-28T16:02:50;3.00;;;2.80;;
11921;SDS011;6021;51.182;3.160;2023-02-28T16:05:23;2.43;;;2.23;;
11921;SDS011;6021;51.182;3.160;2023-02-28T16:07:58;2.60;;;2.40;;
11921;SDS011;6021;51.182;3.160;2023-02-28T16:10:43;3.20;;;2.50;;
11921;SDS011;6021;51.182;3.160;2023-02-28T16:13:11;2.63;;;2.30;;
11921;SDS011;6021;51.182;3.160;2023-02-28T16:15:42;3.77;;;2.50;;
11921;SDS011;6021;51.182;3.160;2023-02-28T16:18:12;3.37;;;2.40;;
11921;SDS011;6021;51.182;3.160;2023-02-28T16:20:40;2.53;;;2.33;;
11921;SDS011;6021;51.182;3.160;2023-02-28T16:23:10;2.90;;;2.70;;
11921;SDS011;6021;51.182;3.160;2023-02-28T16:25:41;2.83;;;2.47;;
11921;SDS011;6021;51.182;3.160;2023-02-28T16:28:15;3.23;;;2.80;;
11921;SDS011;6021;51.182;3.160;2023-02-28T16:30:43;2.80;;;2.60;;
11921;SDS011;6021;51.182;3.160;2023-02-28T16:33:12;3.40;;;2.83;;
11921;SDS011;6021;51.182;3.160;2023-02-28T16:35:43;3.93;;;3.20;;
11921;SDS011;6021;51.182;3.160;2023-02-28T16:38:16;3.73;;;3.00;;
11921;SDS011;6021;51.182;3.160;2023-02-28T16:40:44;3.00;;;2.70;;
11921;SDS011;6021;51.182;3.160;2023-02-28T16:43:17;3.60;;;3.30;;
11921;SDS011;6021;51.182;3.160;2023-02-28T16:45:47;3.17;;;2.80;;
11921;SDS011;6021;51.182;3.160;2023-02-28T16:48:17;3.30;;;3.00;;
11921;SDS011;6021;51.182;3.160;2023-02-28T16:50:45;4.80;;;3.30;;
11921;SDS011;6021;51.182;3.160;2023-02-28T16:53:14;4.97;;;2.80;;
11921;SDS011;6021;51.182;3.160;2023-02-28T16:55:42;2.80;;;2.60;;
11921;SDS011;6021;51.182;3.160;2023-02-28T16:58:13;2.77;;;2.57;;
11921;SDS011;6021;51.182;3.160;2023-02-28T17:00:42;3.37;;;2.80;;
11921;SDS011;6021;51.182;3.160;2023-02-28T17:03:44;3.30;;;3.00;;
11921;SDS011;6021;51.182;3.160;2023-02-28T17:06:16;3.60;;;3.17;;
11921;SDS011;6021;51.182;3.160;2023-02-28T17:08:45;3.30;;;3.00;;
11921;SDS011;6021;51.182;3.160;2023-02-28T17:11:14;3.23;;;2.93;;
11921;SDS011;6021;51.182;3.160;2023-02-28T17:13:43;3.03;;;2.77;;
11921;SDS011;6021;51.182;3.160;2023-02-28T17:16:22;4.20;;;3.20;;
11921;SDS011;6021;51.182;3.160;2023-02-28T17:18:53;3.50;;;3.20;;
11921;SDS011;6021;51.182;3.160;2023-02-28T17:21:27;3.50;;;3.20;;
11921;SDS011;6021;51.182;3.160;2023-02-28T17:23:56;4.23;;;3.33;;
11921;SDS011;6021;51.182;3.160;2023-02-28T17:26:25;3.30;;;3.00;;